sensor_id;sensor_type;location;lat;lon;timestamp;pressure;altitude;pressure_sealevel;temperature;humidity
76605;BME280;73179;50.978;16.998;2024-03-08T00:02:17;100916.72;;;0.18;100.00
76605;BME280;73179;50.978;16.998;2024-03-08T00:04:42;100879.38;;;0.05;100.00
76605;BME280;73179;50.978;16.998;2024-03-08T00:07:10;100889.72;;;0.28;100.00
76605;BME280;73179;50.978;16.998;2024-03-08T00:09:36;100933.66;;;0.58;100.00
76605;BME280;73179;50.978;16.998;2024-03-08T00:12:02;100894.50;;;0.45;100.00
76605;BME280;73179;50.978;16.998;2024-03-08T00:14:27;100887.94;;;0.48;100.00
76605;BME280;73179;50.978;16.998;2024-03-08T00:16:53;100908.66;;;0.53;100.00
76605;BME280;73179;50.978;16.998;2024-03-08T00:19:19;100894.09;;;0.48;100.00
76605;BME280;73179;50.978;16.998;2024-03-08T00:21:45;100895.09;;;0.47;100.00
76605;BME280;73179;50.978;16.998;2024-03-08T00:24:11;100925.09;;;0.69;100.00
76605;BME280;73179;50.978;16.998;2024-03-08T00:26:37;100906.56;;;0.48;100.00
76605;BME280;73179;50.978;16.998;2024-03-08T00:29:03;100913.56;;;0.49;100.00
76605;BME280;73179;50.978;16.998;2024-03-08T00:31:29;100896.13;;;0.46;100.00
76605;BME280;73179;50.978;16.998;2024-03-08T00:33:56;100887.09;;;0.34;100.00
76605;BME280;73179;50.978;16.998;2024-03-08T00:36:23;100865.97;;;0.26;100.00
76605;BME280;73179;50.978;16.998;2024-03-08T00:38:48;100896.34;;;0.45;100.00
76605;BME280;73179;50.978;16.998;2024-03-08T00:41:14;100915.63;;;0.54;100.00
76605;BME280;73179;50.978;16.998;2024-03-08T00:43:40;100883.19;;;0.30;100.00
76605;BME280;73179;50.978;16.998;2024-03-08T00:46:06;100884.81;;;0.31;100.00
76605;BME280;73179;50.978;16.998;2024-03-08T00:48:31;100865.13;;;0.19;100.00
76605;BME280;73179;50.978;16.998;2024-03-08T00:50:57;100892.59;;;0.33;100.00
76605;BME280;73179;50.978;16.998;2024-03-08T00:53:23;100883.53;;;0.21;100.00
76605;BME280;73179;50.978;16.998;2024-03-08T00:55:49;100870.44;;;0.19;100.00
76605;BME280;73179;50.978;16.998;2024-03-08T00:58:15;100856.44;;;0.04;100.00
76605;BME280;73179;50.978;16.998;2024-03-08T01:00:41;100865.47;;;0.10;100.00
76605;BME280;73179;50.978;16.998;2024-03-08T01:03:07;100888.00;;;0.07;100.00
76605;BME280;73179;50.978;16.998;2024-03-08T01:05:33;100876.28;;;-0.05;100.00
76605;BME280;73179;50.978;16.998;2024-03-08T01:08:00;100866.63;;;-0.13;100.00
76605;BME280;73179;50.978;16.998;2024-03-08T01:10:28;100891.28;;;0.09;100.00
76605;BME280;73179;50.978;16.998;2024-03-08T01:12:57;100873.63;;;-0.05;100.00
76605;BME280;73179;50.978;16.998;2024-03-08T01:15:24;100872.38;;;-0.09;100.00
76605;BME280;73179;50.978;16.998;2024-03-08T01:17:50;100890.25;;;0.10;100.00
76605;BME280;73179;50.978;16.998;2024-03-08T01:20:16;100848.56;;;-0.24;100.00
76605;BME280;73179;50.978;16.998;2024-03-08T01:22:43;100866.81;;;-0.14;100.00
76605;BME280;73179;50.978;16.998;2024-03-08T01:25:09;100854.25;;;-0.27;100.00
76605;BME280;73179;50.978;16.998;2024-03-08T01:27:35;100867.66;;;-0.07;100.00
76605;BME280;73179;50.978;16.998;2024-03-08T01:30:03;100859.81;;;-0.15;100.00
76605;BME280;73179;50.978;16.998;2024-03-08T01:32:30;100859.53;;;-0.33;100.00
76605;BME280;73179;50.978;16.998;2024-03-08T01:34:55;100860.19;;;-0.31;100.00
76605;BME280;73179;50.978;16.998;2024-03-08T01:37:21;100829.50;;;-0.62;100.00
76605;BME280;73179;50.978;16.998;2024-03-08T01:39:47;100837.25;;;-0.67;100.00
76605;BME280;73179;50.978;16.998;2024-03-08T01:42:13;100851.09;;;-0.43;100.00
76605;BME280;73179;50.978;16.998;2024-03-08T01:44:40;100862.84;;;-0.31;100.00
76605;BME280;73179;50.978;16.998;2024-03-08T01:47:25;100856.63;;;-0.38;100.00
76605;BME280;73179;50.978;16.998;2024-03-08T01:49:51;100841.88;;;-0.47;100.00
76605;BME280;73179;50.978;16.998;2024-03-08T01:52:36;100846.94;;;-0.53;100.00
76605;BME280;73179;50.978;16.998;2024-03-08T01:55:03;100852.50;;;-0.47;100.00
76605;BME280;73179;50.978;16.998;2024-03-08T01:57:34;100841.16;;;-0.63;100.00
76605;BME280;73179;50.978;16.998;2024-03-08T02:00:03;100861.03;;;-0.59;100.00
76605;BME280;73179;50.978;16.998;2024-03-08T02:02:32;100846.41;;;-0.69;100.00
76605;BME280;73179;50.978;16.998;2024-03-08T02:05:00;100839.25;;;-0.69;100.00
76605;BME280;73179;50.978;16.998;2024-03-08T02:07:26;100840.66;;;-0.73;100.00
76605;BME280;73179;50.978;16.998;2024-03-08T02:09:51;100810.31;;;-0.85;100.00
76605;BME280;73179;50.978;16.998;2024-03-08T02:12:18;100839.22;;;-0.75;100.00
76605;BME280;73179;50.978;16.998;2024-03-08T02:14:46;100847.25;;;-0.69;100.00
76605;BME280;73179;50.978;16.998;2024-03-08T02:17:12;100844.28;;;-0.80;100.00
76605;BME280;73179;50.978;16.998;2024-03-08T02:19:38;100853.19;;;-0.94;100.00
76605;BME280;73179;50.978;16.998;2024-03-08T02:22:05;100809.25;;;-1.18;100.00
76605;BME280;73179;50.978;16.998;2024-03-08T02:24:32;100825.78;;;-0.95;100.00
76605;BME280;73179;50.978;16.998;2024-03-08T02:26:58;100828.84;;;-0.98;100.00
76605;BME280;73179;50.978;16.998;2024-03-08T02:29:24;100822.53;;;-0.97;100.00
76605;BME280;73179;50.978;16.998;2024-03-08T02:31:53;100832.63;;;-0.86;100.00
76605;BME280;73179;50.978;16.998;2024-03-08T02:34:19;100836.91;;;-0.85;100.00
76605;BME280;73179;50.978;16.998;2024-03-08T02:36:45;100818.47;;;-0.93;100.00
76605;BME280;73179;50.978;16.998;2024-03-08T02:39:12;100812.91;;;-0.98;100.00
76605;BME280;73179;50.978;16.998;2024-03-08T02:41:38;100803.69;;;-1.02;100.00
76605;BME280;73179;50.978;16.998;2024-03-08T02:44:04;100829.66;;;-0.98;100.00
76605;BME280;73179;50.978;16.998;2024-03-08T02:46:30;100839.25;;;-0.97;100.00
76605;BME280;73179;50.978;16.998;2024-03-08T02:48:56;100835.16;;;-0.99;100.00
76605;BME280;73179;50.978;16.998;2024-03-08T02:51:22;100840.91;;;-0.96;100.00
76605;BME280;73179;50.978;16.998;2024-03-08T02:53:48;100818.25;;;-1.19;100.00
76605;BME280;73179;50.978;16.998;2024-03-08T02:56:17;100824.19;;;-1.17;100.00
76605;BME280;73179;50.978;16.998;2024-03-08T02:58:43;100793.69;;;-1.49;100.00
76605;BME280;73179;50.978;16.998;2024-03-08T03:01:14;100809.75;;;-1.36;100.00
76605;BME280;73179;50.978;16.998;2024-03-08T03:03:41;100810.56;;;-1.35;100.00
76605;BME280;73179;50.978;16.998;2024-03-08T03:06:07;100826.72;;;-1.30;100.00
76605;BME280;73179;50.978;16.998;2024-03-08T03:08:33;100820.41;;;-1.29;100.00
76605;BME280;73179;50.978;16.998;2024-03-08T03:10:58;100812.63;;;-1.31;100.00
76605;BME280;73179;50.978;16.998;2024-03-08T03:13:24;100801.94;;;-1.37;100.00
76605;BME280;73179;50.978;16.998;2024-03-08T03:15:49;100815.28;;;-1.31;100.00
76605;BME280;73179;50.978;16.998;2024-03-08T03:18:15;100825.59;;;-1.21;100.00
76605;BME280;73179;50.978;16.998;2024-03-08T03:20:41;100829.25;;;-1.22;100.00
76605;BME280;73179;50.978;16.998;2024-03-08T03:23:09;100821.97;;;-1.35;100.00
76605;BME280;73179;50.978;16.998;2024-03-08T03:25:35;100828.13;;;-1.56;100.00
76605;BME280;73179;50.978;16.998;2024-03-08T03:28:02;100837.03;;;-1.63;100.00
76605;BME280;73179;50.978;16.998;2024-03-08T03:30:28;100818.13;;;-1.75;100.00
76605;BME280;73179;50.978;16.998;2024-03-08T03:33:02;100798.41;;;-1.87;100.00
76605;BME280;73179;50.978;16.998;2024-03-08T03:35:32;100818.25;;;-1.83;100.00
76605;BME280;73179;50.978;16.998;2024-03-08T03:37:58;100806.09;;;-1.92;100.00
76605;BME280;73179;50.978;16.998;2024-03-08T03:40:28;100805.16;;;-1.84;100.00
76605;BME280;73179;50.978;16.998;2024-03-08T03:42:55;100809.72;;;-1.78;100.00
76605;BME280;73179;50.978;16.998;2024-03-08T03:45:21;100795.06;;;-1.74;100.00
76605;BME280;73179;50.978;16.998;2024-03-08T03:47:47;100762.38;;;-1.96;100.00
76605;BME280;73179;50.978;16.998;2024-03-08T03:50:13;100816.41;;;-1.61;100.00
76605;BME280;73179;50.978;16.998;2024-03-08T03:52:39;100822.16;;;-1.79;100.00
76605;BME280;73179;50.978;16.998;2024-03-08T03:55:05;100802.47;;;-2.06;100.00
76605;BME280;73179;50.978;16.998;2024-03-08T03:57:31;100807.03;;;-2.00;100.00
76605;BME280;73179;50.978;16.998;2024-03-08T03:59:57;100834.44;;;-1.78;100.00
76605;BME280;73179;50.978;16.998;2024-03-08T04:02:24;100806.31;;;-1.94;100.00
76605;BME280;73179;50.978;16.998;2024-03-08T04:04:52;100817.41;;;-1.83;100.00
76605;BME280;73179;50.978;16.998;2024-03-08T04:07:20;100845.16;;;-1.65;100.00
76605;BME280;73179;50.978;16.998;2024-03-08T04:09:46;100802.31;;;-1.83;100.00
76605;BME280;73179;50.978;16.998;2024-03-08T04:12:12;100797.41;;;-1.86;100.00
76605;BME280;73179;50.978;16.998;2024-03-08T04:14:40;100813.66;;;-1.74;100.00
76605;BME280;73179;50.978;16.998;2024-03-08T04:17:07;100830.41;;;-1.74;100.00
76605;BME280;73179;50.978;16.998;2024-03-08T04:19:35;100802.06;;;-1.88;100.00
76605;BME280;73179;50.978;16.998;2024-03-08T04:22:01;100784.25;;;-1.94;100.00
76605;BME280;73179;50.978;16.998;2024-03-08T04:24:27;100771.28;;;-2.04;100.00
76605;BME280;73179;50.978;16.998;2024-03-08T04:26:53;100809.56;;;-1.92;100.00
76605;BME280;73179;50.978;16.998;2024-03-08T04:29:20;100809.22;;;-2.03;100.00
76605;BME280;73179;50.978;16.998;2024-03-08T04:31:46;100814.53;;;-2.03;100.00
76605;BME280;73179;50.978;16.998;2024-03-08T04:34:12;100820.56;;;-1.95;100.00
76605;BME280;73179;50.978;16.998;2024-03-08T04:36:41;100833.88;;;-1.88;100.00
76605;BME280;73179;50.978;16.998;2024-03-08T04:39:06;100807.59;;;-2.04;100.00
76605;BME280;73179;50.978;16.998;2024-03-08T04:41:38;100814.25;;;-2.08;100.00
76605;BME280;73179;50.978;16.998;2024-03-08T04:44:05;100827.69;;;-1.95;100.00
76605;BME280;73179;50.978;16.998;2024-03-08T04:46:31;100828.69;;;-1.96;100.00
76605;BME280;73179;50.978;16.998;2024-03-08T04:48:56;100806.97;;;-2.06;100.00
76605;BME280;73179;50.978;16.998;2024-03-08T04:51:25;100800.56;;;-2.12;100.00
76605;BME280;73179;50.978;16.998;2024-03-08T04:53:50;100808.72;;;-2.13;100.00
76605;BME280;73179;50.978;16.998;2024-03-08T04:56:16;100815.53;;;-2.04;100.00
76605;BME280;73179;50.978;16.998;2024-03-08T04:58:45;100802.59;;;-2.14;100.00
76605;BME280;73179;50.978;16.998;2024-03-08T05:01:14;100804.03;;;-2.11;100.00
76605;BME280;73179;50.978;16.998;2024-03-08T05:03:39;100815.41;;;-2.17;100.00
76605;BME280;73179;50.978;16.998;2024-03-08T05:06:06;100810.56;;;-2.28;100.00
76605;BME280;73179;50.978;16.998;2024-03-08T05:08:31;100802.69;;;-2.22;100.00
76605;BME280;73179;50.978;16.998;2024-03-08T05:10:58;100815.50;;;-2.25;100.00
76605;BME280;73179;50.978;16.998;2024-03-08T05:13:26;100815.56;;;-2.19;100.00
76605;BME280;73179;50.978;16.998;2024-03-08T05:15:52;100835.25;;;-2.13;100.00
76605;BME280;73179;50.978;16.998;2024-03-08T05:18:18;100826.00;;;-2.17;100.00
76605;BME280;73179;50.978;16.998;2024-03-08T05:20:44;100803.25;;;-2.26;100.00
76605;BME280;73179;50.978;16.998;2024-03-08T05:23:10;100799.84;;;-2.35;100.00
76605;BME280;73179;50.978;16.998;2024-03-08T05:25:36;100819.53;;;-2.29;100.00
76605;BME280;73179;50.978;16.998;2024-03-08T05:28:02;100804.72;;;-2.38;100.00
76605;BME280;73179;50.978;16.998;2024-03-08T05:30:29;100811.75;;;-2.31;100.00
76605;BME280;73179;50.978;16.998;2024-03-08T05:32:55;100806.47;;;-2.46;100.00
76605;BME280;73179;50.978;16.998;2024-03-08T05:35:22;100827.19;;;-2.34;100.00
76605;BME280;73179;50.978;16.998;2024-03-08T05:37:48;100808.41;;;-2.39;100.00
76605;BME280;73179;50.978;16.998;2024-03-08T05:40:14;100809.22;;;-2.03;100.00
76605;BME280;73179;50.978;16.998;2024-03-08T05:42:40;100798.56;;;-1.88;100.00
76605;BME280;73179;50.978;16.998;2024-03-08T05:45:06;100801.78;;;-1.78;100.00
76605;BME280;73179;50.978;16.998;2024-03-08T05:47:32;100784.25;;;-1.73;100.00
76605;BME280;73179;50.978;16.998;2024-03-08T05:49:59;100799.72;;;-1.76;100.00
76605;BME280;73179;50.978;16.998;2024-03-08T05:52:25;100808.34;;;-1.74;100.00
76605;BME280;73179;50.978;16.998;2024-03-08T05:54:51;100787.56;;;-2.07;100.00
76605;BME280;73179;50.978;16.998;2024-03-08T05:57:18;100830.13;;;-1.79;100.00
76605;BME280;73179;50.978;16.998;2024-03-08T05:59:43;100794.75;;;-2.01;100.00
76605;BME280;73179;50.978;16.998;2024-03-08T06:02:09;100808.34;;;-1.74;100.00
76605;BME280;73179;50.978;16.998;2024-03-08T06:04:35;100823.13;;;-1.65;100.00
76605;BME280;73179;50.978;16.998;2024-03-08T06:07:00;100809.91;;;-1.80;100.00
76605;BME280;73179;50.978;16.998;2024-03-08T06:09:29;100780.06;;;-2.03;100.00
76605;BME280;73179;50.978;16.998;2024-03-08T06:11:55;100791.44;;;-2.09;100.00
76605;BME280;73179;50.978;16.998;2024-03-08T06:14:22;100829.97;;;-1.92;100.00
76605;BME280;73179;50.978;16.998;2024-03-08T06:16:48;100815.06;;;-1.93;100.00
76605;BME280;73179;50.978;16.998;2024-03-08T06:19:16;100837.72;;;-1.76;100.00
76605;BME280;73179;50.978;16.998;2024-03-08T06:21:41;100840.81;;;-1.72;100.00
76605;BME280;73179;50.978;16.998;2024-03-08T06:24:07;100761.81;;;-2.13;100.00
76605;BME280;73179;50.978;16.998;2024-03-08T06:26:33;100803.88;;;-1.88;100.00
76605;BME280;73179;50.978;16.998;2024-03-08T06:28:59;100817.88;;;-1.80;100.00
76605;BME280;73179;50.978;16.998;2024-03-08T06:31:25;100824.59;;;-1.63;100.00
76605;BME280;73179;50.978;16.998;2024-03-08T06:33:51;100807.91;;;-1.57;100.00
76605;BME280;73179;50.978;16.998;2024-03-08T06:36:20;100838.59;;;-1.69;100.00
76605;BME280;73179;50.978;16.998;2024-03-08T06:38:50;100819.50;;;-1.58;100.00
76605;BME280;73179;50.978;16.998;2024-03-08T06:41:16;100833.50;;;-1.49;100.00
76605;BME280;73179;50.978;16.998;2024-03-08T06:43:46;100831.53;;;-1.40;100.00
76605;BME280;73179;50.978;16.998;2024-03-08T06:46:15;100846.66;;;-1.20;100.00
76605;BME280;73179;50.978;16.998;2024-03-08T06:48:41;100825.97;;;-1.46;100.00
76605;BME280;73179;50.978;16.998;2024-03-08T06:51:07;100842.34;;;-1.21;100.00
76605;BME280;73179;50.978;16.998;2024-03-08T06:53:33;100822.53;;;-1.18;100.00
76605;BME280;73179;50.978;16.998;2024-03-08T06:56:01;100827.69;;;-1.38;100.00
76605;BME280;73179;50.978;16.998;2024-03-08T06:58:27;100837.88;;;-1.20;100.00
76605;BME280;73179;50.978;16.998;2024-03-08T07:00:53;100790.75;;;-1.54;100.00
76605;BME280;73179;50.978;16.998;2024-03-08T07:03:19;100815.56;;;-1.19;100.00
76605;BME280;73179;50.978;16.998;2024-03-08T07:05:47;100816.41;;;-1.19;100.00
76605;BME280;73179;50.978;16.998;2024-03-08T07:08:13;100826.19;;;-1.19;100.00
76605;BME280;73179;50.978;16.998;2024-03-08T07:10:39;100826.06;;;-1.11;100.00
76605;BME280;73179;50.978;16.998;2024-03-08T07:13:08;100817.56;;;-1.00;100.00
76605;BME280;73179;50.978;16.998;2024-03-08T07:15:34;100806.59;;;-0.97;100.00
76605;BME280;73179;50.978;16.998;2024-03-08T07:18:01;100847.16;;;-0.54;100.00
76605;BME280;73179;50.978;16.998;2024-03-08T07:20:27;100828.47;;;-0.61;100.00
76605;BME280;73179;50.978;16.998;2024-03-08T07:22:54;100825.06;;;-0.55;100.00
76605;BME280;73179;50.978;16.998;2024-03-08T07:25:20;100819.81;;;-0.41;100.00
76605;BME280;73179;50.978;16.998;2024-03-08T07:27:54;100842.44;;;-0.11;100.00
76605;BME280;73179;50.978;16.998;2024-03-08T07:30:22;100819.38;;;-0.45;100.00
76605;BME280;73179;50.978;16.998;2024-03-08T07:33:06;100812.84;;;-0.42;100.00
76605;BME280;73179;50.978;16.998;2024-03-08T07:35:35;100822.03;;;-0.04;100.00
76605;BME280;73179;50.978;16.998;2024-03-08T07:38:04;100836.19;;;0.03;100.00
76605;BME280;73179;50.978;16.998;2024-03-08T07:40:35;100818.81;;;0.07;100.00
76605;BME280;73179;50.978;16.998;2024-03-08T07:43:01;100813.59;;;-0.14;100.00
76605;BME280;73179;50.978;16.998;2024-03-08T07:45:27;100818.66;;;0.35;100.00
76605;BME280;73179;50.978;16.998;2024-03-08T07:47:53;100811.06;;;0.25;100.00
76605;BME280;73179;50.978;16.998;2024-03-08T07:50:19;100826.69;;;0.41;100.00
76605;BME280;73179;50.978;16.998;2024-03-08T07:52:45;100817.88;;;0.34;100.00
76605;BME280;73179;50.978;16.998;2024-03-08T07:55:11;100793.50;;;0.44;100.00
76605;BME280;73179;50.978;16.998;2024-03-08T07:57:37;100789.84;;;0.65;100.00
76605;BME280;73179;50.978;16.998;2024-03-08T08:00:06;100805.78;;;0.52;100.00
76605;BME280;73179;50.978;16.998;2024-03-08T08:02:34;100802.72;;;0.55;100.00
76605;BME280;73179;50.978;16.998;2024-03-08T08:05:01;100787.75;;;0.40;100.00
76605;BME280;73179;50.978;16.998;2024-03-08T08:07:27;100805.78;;;0.58;100.00
76605;BME280;73179;50.978;16.998;2024-03-08T08:09:53;100799.22;;;0.54;100.00
76605;BME280;73179;50.978;16.998;2024-03-08T08:12:19;100810.72;;;0.55;100.00
76605;BME280;73179;50.978;16.998;2024-03-08T08:14:45;100801.31;;;1.11;100.00
76605;BME280;73179;50.978;16.998;2024-03-08T08:17:11;100805.41;;;0.94;100.00
76605;BME280;73179;50.978;16.998;2024-03-08T08:19:37;100806.66;;;0.91;100.00
76605;BME280;73179;50.978;16.998;2024-03-08T08:22:04;100785.09;;;1.13;100.00
76605;BME280;73179;50.978;16.998;2024-03-08T08:24:30;100794.53;;;1.22;100.00
76605;BME280;73179;50.978;16.998;2024-03-08T08:26:56;100781.22;;;1.02;100.00
76605;BME280;73179;50.978;16.998;2024-03-08T08:29:22;100777.13;;;1.00;100.00
76605;BME280;73179;50.978;16.998;2024-03-08T08:31:48;100797.00;;;1.10;100.00
76605;BME280;73179;50.978;16.998;2024-03-08T08:34:16;100814.59;;;1.51;100.00
76605;BME280;73179;50.978;16.998;2024-03-08T08:36:45;100784.00;;;1.40;100.00
76605;BME280;73179;50.978;16.998;2024-03-08T08:39:11;100813.97;;;1.49;100.00
76605;BME280;73179;50.978;16.998;2024-03-08T08:41:39;100821.53;;;1.58;100.00
76605;BME280;73179;50.978;16.998;2024-03-08T08:44:08;100801.38;;;1.69;100.00
76605;BME280;73179;50.978;16.998;2024-03-08T08:46:36;100792.53;;;1.81;100.00
76605;BME280;73179;50.978;16.998;2024-03-08T08:49:03;100796.41;;;1.79;100.00
76605;BME280;73179;50.978;16.998;2024-03-08T08:51:30;100786.66;;;2.04;100.00
76605;BME280;73179;50.978;16.998;2024-03-08T08:53:59;100769.28;;;2.26;100.00
76605;BME280;73179;50.978;16.998;2024-03-08T08:56:25;100804.31;;;2.05;100.00
76605;BME280;73179;50.978;16.998;2024-03-08T08:58:52;100776.44;;;1.95;100.00
76605;BME280;73179;50.978;16.998;2024-03-08T09:01:19;100782.53;;;2.08;100.00
76605;BME280;73179;50.978;16.998;2024-03-08T09:03:45;100771.66;;;2.03;100.00
76605;BME280;73179;50.978;16.998;2024-03-08T09:06:16;100791.28;;;2.22;100.00
76605;BME280;73179;50.978;16.998;2024-03-08T09:08:42;100782.44;;;2.21;100.00
76605;BME280;73179;50.978;16.998;2024-03-08T09:11:10;100806.63;;;2.33;100.00
76605;BME280;73179;50.978;16.998;2024-03-08T09:13:36;100768.66;;;2.24;100.00
76605;BME280;73179;50.978;16.998;2024-03-08T09:16:04;100762.19;;;2.70;100.00
76605;BME280;73179;50.978;16.998;2024-03-08T09:18:32;100769.03;;;2.59;100.00
76605;BME280;73179;50.978;16.998;2024-03-08T09:20:58;100782.59;;;2.33;100.00
76605;BME280;73179;50.978;16.998;2024-03-08T09:23:25;100782.28;;;2.48;100.00
76605;BME280;73179;50.978;16.998;2024-03-08T09:25:52;100779.31;;;2.62;100.00
76605;BME280;73179;50.978;16.998;2024-03-08T09:28:17;100783.97;;;2.73;100.00
76605;BME280;73179;50.978;16.998;2024-03-08T09:30:43;100763.28;;;2.62;100.00
76605;BME280;73179;50.978;16.998;2024-03-08T09:33:10;100765.34;;;2.60;100.00
76605;BME280;73179;50.978;16.998;2024-03-08T09:35:37;100777.28;;;2.82;100.00
76605;BME280;73179;50.978;16.998;2024-03-08T09:38:02;100762.00;;;3.14;100.00
76605;BME280;73179;50.978;16.998;2024-03-08T09:40:31;100752.09;;;2.72;100.00
76605;BME280;73179;50.978;16.998;2024-03-08T09:42:57;100760.44;;;2.82;100.00
76605;BME280;73179;50.978;16.998;2024-03-08T09:45:24;100762.06;;;3.08;100.00
76605;BME280;73179;50.978;16.998;2024-03-08T09:47:50;100776.41;;;2.64;100.00
76605;BME280;73179;50.978;16.998;2024-03-08T09:50:16;100769.22;;;2.64;100.00
76605;BME280;73179;50.978;16.998;2024-03-08T09:52:46;100757.34;;;2.85;100.00
76605;BME280;73179;50.978;16.998;2024-03-08T09:55:12;100736.22;;;2.77;100.00
76605;BME280;73179;50.978;16.998;2024-03-08T09:57:40;100773.66;;;2.77;100.00
76605;BME280;73179;50.978;16.998;2024-03-08T10:00:06;100762.19;;;2.95;100.00
76605;BME280;73179;50.978;16.998;2024-03-08T10:02:47;100766.97;;;3.29;100.00
76605;BME280;73179;50.978;16.998;2024-03-08T10:05:14;100761.50;;;3.24;100.00
76605;BME280;73179;50.978;16.998;2024-03-08T10:07:40;100755.63;;;3.33;100.00
76605;BME280;73179;50.978;16.998;2024-03-08T10:10:06;100744.75;;;3.10;100.00
76605;BME280;73179;50.978;16.998;2024-03-08T10:12:34;100727.53;;;3.43;100.00
76605;BME280;73179;50.978;16.998;2024-03-08T10:15:01;100722.00;;;3.56;100.00
76605;BME280;73179;50.978;16.998;2024-03-08T10:17:27;100725.94;;;3.71;100.00
76605;BME280;73179;50.978;16.998;2024-03-08T10:19:58;100753.94;;;3.39;100.00
76605;BME280;73179;50.978;16.998;2024-03-08T10:22:25;100740.25;;;3.47;100.00
76605;BME280;73179;50.978;16.998;2024-03-08T10:24:53;100720.75;;;3.22;100.00
76605;BME280;73179;50.978;16.998;2024-03-08T10:27:18;100734.19;;;3.88;100.00
76605;BME280;73179;50.978;16.998;2024-03-08T10:29:48;100717.50;;;4.16;100.00
76605;BME280;73179;50.978;16.998;2024-03-08T10:32:14;100726.88;;;3.95;100.00
76605;BME280;73179;50.978;16.998;2024-03-08T10:34:45;100735.91;;;4.12;100.00
76605;BME280;73179;50.978;16.998;2024-03-08T10:37:15;100732.69;;;3.92;100.00
76605;BME280;73179;50.978;16.998;2024-03-08T10:39:46;100742.94;;;3.95;100.00
76605;BME280;73179;50.978;16.998;2024-03-08T10:42:23;100720.50;;;4.08;100.00
76605;BME280;73179;50.978;16.998;2024-03-08T10:45:06;100730.03;;;4.33;100.00
76605;BME280;73179;50.978;16.998;2024-03-08T10:47:40;100695.47;;;4.14;100.00
76605;BME280;73179;50.978;16.998;2024-03-08T10:50:19;100720.00;;;4.41;100.00
76605;BME280;73179;50.978;16.998;2024-03-08T10:52:51;100726.16;;;4.29;100.00
76605;BME280;73179;50.978;16.998;2024-03-08T10:55:20;100706.22;;;4.25;100.00
76605;BME280;73179;50.978;16.998;2024-03-08T10:57:46;100696.91;;;4.16;100.00
76605;BME280;73179;50.978;16.998;2024-03-08T11:00:13;100726.94;;;4.83;100.00
76605;BME280;73179;50.978;16.998;2024-03-08T11:02:43;100710.72;;;4.43;100.00
76605;BME280;73179;50.978;16.998;2024-03-08T11:05:15;100696.25;;;4.44;100.00
76605;BME280;73179;50.978;16.998;2024-03-08T11:07:57;100672.69;;;4.35;100.00
76605;BME280;73179;50.978;16.998;2024-03-08T11:10:23;100701.69;;;4.26;100.00
76605;BME280;73179;50.978;16.998;2024-03-08T11:12:49;100706.06;;;4.62;100.00
76605;BME280;73179;50.978;16.998;2024-03-08T11:15:15;100698.47;;;4.47;100.00
76605;BME280;73179;50.978;16.998;2024-03-08T11:17:50;100697.88;;;4.45;100.00
76605;BME280;73179;50.978;16.998;2024-03-08T11:20:20;100708.75;;;4.62;100.00
76605;BME280;73179;50.978;16.998;2024-03-08T11:22:53;100699.31;;;4.59;100.00
76605;BME280;73179;50.978;16.998;2024-03-08T11:25:33;100679.38;;;4.55;100.00
76605;BME280;73179;50.978;16.998;2024-03-08T11:28:23;100681.34;;;4.71;100.00
76605;BME280;73179;50.978;16.998;2024-03-08T11:33:26;100674.75;;;5.25;100.00
76605;BME280;73179;50.978;16.998;2024-03-08T11:36:11;100664.09;;;4.79;100.00
76605;BME280;73179;50.978;16.998;2024-03-08T11:38:40;100657.47;;;4.82;100.00
76605;BME280;73179;50.978;16.998;2024-03-08T11:41:07;100643.94;;;4.53;100.00
76605;BME280;73179;50.978;16.998;2024-03-08T11:43:33;100657.22;;;4.48;100.00
76605;BME280;73179;50.978;16.998;2024-03-08T11:46:09;100644.97;;;4.87;100.00
76605;BME280;73179;50.978;16.998;2024-03-08T11:48:36;100648.69;;;5.09;100.00
76605;BME280;73179;50.978;16.998;2024-03-08T11:51:03;100667.88;;;5.29;100.00
76605;BME280;73179;50.978;16.998;2024-03-08T11:53:31;100638.75;;;4.98;100.00
76605;BME280;73179;50.978;16.998;2024-03-08T11:56:11;100653.59;;;4.89;100.00
76605;BME280;73179;50.978;16.998;2024-03-08T11:58:38;100614.75;;;4.92;99.85
76605;BME280;73179;50.978;16.998;2024-03-08T12:01:08;100629.94;;;4.98;100.00
76605;BME280;73179;50.978;16.998;2024-03-08T12:03:43;100615.81;;;4.91;100.00
76605;BME280;73179;50.978;16.998;2024-03-08T12:06:10;100606.97;;;4.90;100.00
76605;BME280;73179;50.978;16.998;2024-03-08T12:08:36;100623.44;;;5.22;100.00
76605;BME280;73179;50.978;16.998;2024-03-08T12:11:05;100620.44;;;5.07;99.53
76605;BME280;73179;50.978;16.998;2024-03-08T12:13:33;100595.81;;;5.10;100.00
76605;BME280;73179;50.978;16.998;2024-03-08T12:16:03;100609.06;;;5.56;100.00
76605;BME280;73179;50.978;16.998;2024-03-08T12:18:35;100597.34;;;5.17;97.43
76605;BME280;73179;50.978;16.998;2024-03-08T12:21:09;100588.44;;;5.28;100.00
76605;BME280;73179;50.978;16.998;2024-03-08T12:23:39;100619.44;;;5.36;99.82
76605;BME280;73179;50.978;16.998;2024-03-08T12:26:16;100615.03;;;5.18;100.00
76605;BME280;73179;50.978;16.998;2024-03-08T12:28:43;100605.63;;;5.16;100.00
76605;BME280;73179;50.978;16.998;2024-03-08T12:31:16;100567.63;;;5.36;100.00
76605;BME280;73179;50.978;16.998;2024-03-08T12:33:55;100590.34;;;5.45;98.96
76605;BME280;73179;50.978;16.998;2024-03-08T12:36:25;100609.19;;;5.61;98.88
76605;BME280;73179;50.978;16.998;2024-03-08T12:38:51;100581.56;;;5.49;99.11
76605;BME280;73179;50.978;16.998;2024-03-08T12:41:20;100590.88;;;5.87;100.00